< < Back
Terminal Aerodrome Forecast


Current Version              Previous Versions:   1  2  3  4  5  6  7  8  9  

Terminal Aerodrome Forecast

864
FTUS42 KTAE 301639 AAC
TAFVLD
TAF AMD
KVLD 301639Z 3017/3112 07010G15KT P6SM VCTS SCT040CB
     FM310000 07008KT P6SM SCT250=

Latest METAR

248
SAUS70 KWBC 310000 RRI
MTRVLD
METAR KVLD 302353Z 09005KT 10SM CLR 28/23 A2992 RMK AO2 SLP137 T02780228
10333 20278 53004


USA.gov is the U.S. government's official web portal to all federal, state and local government web resources and services.